createdAt,value
2024-05-09T00:00:18.460Z,14.01
2024-05-09T00:02:44.340Z,13.97
2024-05-09T00:05:11.951Z,13.93
2024-05-09T00:07:39.513Z,13.88
2024-05-09T00:10:11.764Z,13.84
2024-05-09T00:12:36.602Z,13.79
2024-05-09T00:15:05.014Z,13.77
2024-05-09T00:17:32.907Z,13.76
2024-05-09T00:20:00.703Z,13.76
2024-05-09T00:22:28.283Z,13.72
2024-05-09T00:24:55.988Z,13.67
2024-05-09T00:27:23.386Z,13.62
2024-05-09T00:29:50.961Z,13.62
2024-05-09T00:32:18.572Z,13.59
2024-05-09T00:34:46.168Z,13.59
2024-05-09T00:37:13.605Z,13.57
2024-05-09T00:39:50.605Z,13.55
2024-05-09T00:42:23.885Z,13.51
2024-05-09T00:44:51.464Z,13.49
2024-05-09T00:47:19.089Z,13.47
2024-05-09T00:49:47.815Z,13.44
2024-05-09T00:52:15.804Z,13.44
2024-05-09T00:54:43.239Z,13.41
2024-05-09T00:57:10.703Z,13.42
2024-05-09T00:59:38.435Z,13.42
2024-05-09T01:02:06.242Z,13.40
2024-05-09T01:04:33.770Z,13.37
2024-05-09T01:07:01.391Z,13.35
2024-05-09T01:09:32.055Z,13.34
2024-05-09T01:11:59.691Z,13.33
2024-05-09T01:14:27.532Z,13.33
2024-05-09T01:16:54.920Z,13.36
2024-05-09T01:19:30.428Z,13.40
2024-05-09T01:21:57.907Z,13.44
2024-05-09T01:24:25.798Z,13.49
2024-05-09T01:26:54.043Z,13.56
2024-05-09T01:29:24.542Z,13.62
2024-05-09T01:31:53.469Z,13.69
2024-05-09T01:34:29.519Z,13.73
2024-05-09T01:37:00.087Z,13.77
2024-05-09T01:39:33.809Z,13.87
2024-05-09T01:42:04.126Z,13.94
2024-05-09T01:44:32.777Z,13.99
2024-05-09T01:47:01.557Z,14.02
2024-05-09T01:49:34.346Z,14.01
2024-05-09T01:52:03.422Z,14.00
2024-05-09T01:54:31.068Z,13.97
2024-05-09T01:56:58.603Z,13.92
2024-05-09T01:59:26.181Z,13.87
2024-05-09T02:01:56.977Z,13.83
2024-05-09T02:04:23.769Z,13.78
2024-05-09T02:06:51.354Z,13.73
2024-05-09T02:09:19.005Z,13.71
2024-05-09T02:11:47.906Z,13.68
2024-05-09T02:14:17.727Z,13.66
2024-05-09T02:16:45.176Z,13.65
2024-05-09T02:19:12.845Z,13.62
2024-05-09T02:21:40.614Z,13.60
2024-05-09T02:24:08.080Z,13.57
2024-05-09T02:26:35.752Z,13.56
2024-05-09T02:29:03.522Z,13.53
2024-05-09T02:31:31.146Z,13.52
2024-05-09T02:33:58.751Z,13.48
2024-05-09T02:36:26.573Z,13.43
2024-05-09T02:38:53.881Z,13.40
2024-05-09T02:41:21.415Z,13.37
2024-05-09T02:43:48.966Z,13.35
2024-05-09T02:46:16.656Z,13.32
2024-05-09T02:48:44.191Z,13.30
2024-05-09T02:51:11.911Z,13.27
2024-05-09T02:53:39.581Z,13.26
2024-05-09T02:56:07.295Z,13.24
2024-05-09T02:58:34.764Z,13.21
2024-05-09T03:01:02.396Z,13.20
2024-05-09T03:03:30.357Z,13.17
2024-05-09T03:05:58.260Z,13.16
2024-05-09T03:08:27.301Z,13.13
2024-05-09T03:10:54.880Z,13.11
2024-05-09T03:13:22.422Z,13.08
2024-05-09T03:15:49.962Z,13.07
2024-05-09T03:18:17.828Z,13.05
2024-05-09T03:20:45.403Z,13.03
2024-05-09T03:23:13.140Z,13.03
2024-05-09T03:25:41.046Z,13.03
2024-05-09T03:28:08.661Z,13.03
2024-05-09T03:30:41.302Z,13.07
2024-05-09T03:33:07.669Z,13.11
2024-05-09T03:35:35.315Z,13.15
2024-05-09T03:38:03.020Z,13.20
2024-05-09T03:40:31.186Z,13.25
2024-05-09T03:42:58.944Z,13.31
2024-05-09T03:45:26.612Z,13.39
2024-05-09T03:47:54.210Z,13.48
2024-05-09T03:50:30.005Z,13.56
2024-05-09T03:52:51.409Z,13.61
2024-05-09T03:55:19.191Z,13.66
2024-05-09T03:57:46.757Z,13.73
2024-05-09T04:00:18.357Z,13.74
2024-05-09T04:02:47.326Z,13.77
2024-05-09T04:05:15.029Z,13.73
2024-05-09T04:07:43.736Z,13.72
2024-05-09T04:10:17.361Z,13.72
2024-05-09T04:12:40.807Z,13.71
2024-05-09T04:15:11.206Z,13.67
2024-05-09T04:17:38.659Z,13.61
2024-05-09T04:20:08.626Z,13.57
2024-05-09T04:22:36.803Z,13.53
2024-05-09T04:25:05.144Z,13.47
2024-05-09T04:27:32.577Z,13.37
2024-05-09T04:30:00.279Z,13.30
2024-05-09T04:32:28.002Z,13.19
2024-05-09T04:34:55.717Z,13.12
2024-05-09T04:37:24.853Z,13.05
2024-05-09T04:39:52.506Z,13.00
2024-05-09T04:42:20.054Z,12.97
2024-05-09T04:44:47.662Z,12.94
2024-05-09T04:47:15.583Z,12.91
2024-05-09T04:49:44.867Z,12.86
2024-05-09T04:52:12.428Z,12.82
2024-05-09T04:54:40.028Z,12.76
2024-05-09T04:57:07.594Z,12.72
2024-05-09T04:59:35.786Z,12.67
2024-05-09T05:02:03.772Z,12.66
2024-05-09T05:04:31.698Z,12.65
2024-05-09T05:07:02.547Z,12.61
2024-05-09T05:09:28.716Z,12.59
2024-05-09T05:11:56.311Z,12.56
2024-05-09T05:14:23.930Z,12.56
2024-05-09T05:16:51.519Z,12.54
2024-05-09T05:19:19.264Z,12.54
2024-05-09T05:21:46.592Z,12.53
2024-05-09T05:24:14.182Z,12.50
2024-05-09T05:26:41.769Z,12.48
2024-05-09T05:29:10.228Z,12.43
2024-05-09T05:31:38.002Z,12.42
2024-05-09T05:34:05.773Z,12.44
2024-05-09T05:36:33.283Z,12.49
2024-05-09T05:39:01.222Z,12.53
2024-05-09T05:41:28.996Z,12.59
2024-05-09T05:43:56.582Z,12.66
2024-05-09T05:46:24.215Z,12.72
2024-05-09T05:48:52.391Z,12.78
2024-05-09T05:51:20.159Z,12.83
2024-05-09T05:53:47.686Z,12.87
2024-05-09T05:56:15.227Z,12.89
2024-05-09T05:58:42.865Z,12.94
2024-05-09T06:01:10.476Z,12.99
2024-05-09T06:03:38.807Z,13.02
2024-05-09T06:06:07.039Z,13.03
2024-05-09T06:08:34.553Z,13.05
2024-05-09T06:11:02.794Z,13.04
2024-05-09T06:13:30.429Z,13.03
2024-05-09T06:15:59.793Z,12.99
2024-05-09T06:18:27.588Z,12.92
2024-05-09T06:20:55.172Z,12.86
2024-05-09T06:23:22.923Z,12.80
2024-05-09T06:25:50.964Z,12.74
2024-05-09T06:28:18.483Z,12.72
2024-05-09T06:30:46.269Z,12.68
2024-05-09T06:33:15.823Z,12.64
2024-05-09T06:35:43.984Z,12.60
2024-05-09T06:38:12.400Z,12.56
2024-05-09T06:40:43.611Z,12.52
2024-05-09T06:43:17.167Z,12.50
2024-05-09T06:45:45.288Z,12.50
2024-05-09T06:48:13.262Z,12.47
2024-05-09T06:50:41.482Z,12.48
2024-05-09T06:53:09.364Z,12.48
2024-05-09T06:55:38.010Z,12.47
2024-05-09T06:58:06.704Z,12.47
2024-05-09T07:00:39.373Z,12.45
2024-05-09T07:03:09.272Z,12.45
2024-05-09T07:05:37.575Z,12.44
2024-05-09T07:08:06.361Z,12.44
2024-05-09T07:10:36.179Z,12.42
2024-05-09T07:13:12.041Z,12.42
2024-05-09T07:15:40.615Z,12.42
2024-05-09T07:18:13.052Z,12.43
2024-05-09T07:20:41.464Z,12.43
2024-05-09T07:23:09.935Z,12.42
2024-05-09T07:25:39.036Z,12.46
2024-05-09T07:28:13.026Z,12.49
2024-05-09T07:30:40.618Z,12.52
2024-05-09T07:33:08.315Z,12.56
2024-05-09T07:35:36.199Z,12.62
2024-05-09T07:38:04.283Z,12.66
2024-05-09T07:40:36.091Z,12.70
2024-05-09T07:43:03.477Z,12.79
2024-05-09T07:45:47.978Z,12.87
2024-05-09T07:55:29.394Z,13.21
2024-05-09T07:57:57.123Z,13.27
2024-05-09T08:00:31.030Z,13.33
2024-05-09T08:02:54.148Z,13.37
2024-05-09T08:05:21.893Z,13.40
2024-05-09T08:07:49.953Z,13.38
2024-05-09T08:10:22.138Z,13.37
2024-05-09T08:12:46.670Z,13.35
2024-05-09T08:15:14.023Z,13.33
2024-05-09T08:17:41.499Z,13.31
2024-05-09T08:20:09.859Z,13.29
2024-05-09T08:22:38.862Z,13.25
2024-05-09T08:25:06.883Z,13.20
2024-05-09T08:27:36.257Z,13.17
2024-05-09T08:30:04.899Z,13.15
2024-05-09T08:32:34.498Z,13.10
2024-05-09T08:35:02.233Z,13.10
2024-05-09T08:37:34.929Z,13.07
2024-05-09T08:39:59.516Z,13.05
2024-05-09T08:42:28.946Z,13.00
2024-05-09T08:44:56.682Z,12.97
2024-05-09T08:47:25.015Z,12.95
2024-05-09T08:49:55.372Z,12.93
2024-05-09T08:52:22.866Z,12.90
2024-05-09T08:54:50.401Z,12.85
2024-05-09T08:57:19.014Z,12.82
2024-05-09T08:59:51.141Z,12.78
2024-05-09T09:02:19.476Z,12.78
2024-05-09T09:04:59.774Z,12.76
2024-05-09T09:07:28.485Z,12.70
2024-05-09T09:09:56.131Z,12.70
2024-05-09T09:12:23.618Z,12.69
2024-05-09T09:14:51.191Z,12.69
2024-05-09T09:17:19.120Z,12.68
2024-05-09T09:19:46.917Z,12.68
2024-05-09T09:22:14.637Z,12.68
2024-05-09T09:24:42.463Z,12.68
2024-05-09T09:27:14.760Z,12.69
2024-05-09T09:29:42.478Z,12.71
2024-05-09T09:32:11.169Z,12.70
2024-05-09T09:34:38.593Z,12.71
2024-05-09T09:37:08.100Z,12.74
2024-05-09T09:39:37.187Z,12.76
2024-05-09T09:42:05.644Z,12.77
2024-05-09T09:44:34.213Z,12.78
2024-05-09T09:47:02.582Z,12.78
2024-05-09T09:49:32.269Z,12.78
2024-05-09T09:52:01.723Z,12.80
2024-05-09T09:54:29.528Z,12.85
2024-05-09T09:56:58.139Z,12.93
2024-05-09T09:59:25.743Z,13.00
2024-05-09T10:01:53.735Z,13.07
2024-05-09T10:04:21.602Z,13.18
2024-05-09T10:06:52.827Z,13.29
2024-05-09T10:09:20.974Z,13.39
2024-05-09T10:11:52.080Z,13.50
2024-05-09T10:14:21.658Z,13.62
2024-05-09T10:16:49.480Z,13.72
2024-05-09T10:19:27.328Z,13.80
2024-05-09T10:22:02.542Z,13.87
2024-05-09T10:24:52.436Z,13.95
2024-05-09T10:27:29.663Z,13.97
2024-05-09T10:29:58.945Z,13.98
2024-05-09T10:32:28.285Z,13.99
2024-05-09T10:35:14.310Z,14.00
2024-05-09T10:37:41.974Z,14.02
2024-05-09T10:40:19.913Z,14.07
2024-05-09T10:42:42.489Z,14.13
2024-05-09T10:45:09.858Z,14.16
2024-05-09T10:47:38.109Z,14.21
2024-05-09T10:50:15.451Z,14.24
2024-05-09T10:52:35.616Z,14.25
2024-05-09T10:55:05.799Z,14.26
2024-05-09T10:57:40.338Z,14.28
2024-05-09T11:00:15.595Z,14.30
2024-05-09T11:02:37.860Z,14.34
2024-05-09T11:05:06.154Z,14.33
2024-05-09T11:07:33.846Z,14.31
2024-05-09T11:10:01.710Z,14.28
2024-05-09T11:12:29.473Z,14.23
2024-05-09T11:14:56.910Z,14.17
2024-05-09T11:17:24.386Z,14.16
2024-05-09T11:19:52.203Z,14.18
2024-05-09T11:22:20.934Z,14.16
2024-05-09T11:24:48.630Z,14.17
2024-05-09T11:27:16.232Z,14.20
2024-05-09T11:29:45.697Z,14.26
2024-05-09T11:32:15.203Z,14.33
2024-05-09T11:34:43.019Z,14.33
2024-05-09T11:37:12.443Z,14.32
2024-05-09T11:39:40.077Z,14.37
2024-05-09T11:42:07.716Z,14.45
2024-05-09T11:44:35.440Z,14.50
2024-05-09T11:47:03.950Z,14.57
2024-05-09T11:49:31.465Z,14.61
2024-05-09T11:51:59.210Z,14.63
2024-05-09T11:54:26.731Z,14.67
2024-05-09T11:56:54.257Z,14.72
2024-05-09T11:59:21.764Z,14.75
2024-05-09T12:01:49.565Z,14.78
2024-05-09T12:04:17.415Z,14.79
2024-05-09T12:06:45.880Z,14.78
2024-05-09T12:09:13.723Z,14.77
2024-05-09T12:11:41.155Z,14.79
2024-05-09T12:14:08.787Z,14.84
2024-05-09T12:16:36.653Z,14.93
2024-05-09T12:19:04.606Z,15.00
2024-05-09T12:21:32.153Z,15.05
2024-05-09T12:23:59.515Z,15.11
2024-05-09T12:26:27.847Z,15.20
2024-05-09T12:28:55.391Z,15.28
2024-05-09T12:31:22.971Z,15.36
2024-05-09T12:33:50.688Z,15.45
2024-05-09T12:36:18.323Z,15.51
2024-05-09T12:38:46.014Z,15.56
2024-05-09T12:41:13.520Z,15.64
2024-05-09T12:43:41.157Z,15.72
2024-05-09T12:46:08.633Z,15.75
2024-05-09T12:48:36.444Z,15.74
2024-05-09T12:51:05.308Z,15.73
2024-05-09T12:53:32.898Z,15.72
2024-05-09T12:56:02.931Z,15.72
2024-05-09T12:58:30.292Z,15.78
2024-05-09T13:00:58.093Z,15.82
2024-05-09T13:03:26.418Z,15.83
2024-05-09T13:05:54.202Z,15.82
2024-05-09T13:08:21.976Z,15.79
2024-05-09T13:10:49.777Z,15.72
2024-05-09T13:13:17.433Z,15.68
2024-05-09T13:15:45.330Z,15.68
2024-05-09T13:18:12.881Z,15.68
2024-05-09T13:20:40.492Z,15.65
2024-05-09T13:23:08.744Z,15.67
2024-05-09T13:25:38.000Z,15.68
2024-05-09T13:28:06.807Z,15.69
2024-05-09T13:30:39.904Z,15.65
2024-05-09T13:33:04.786Z,15.61
2024-05-09T13:35:33.761Z,15.56
2024-05-09T13:38:01.755Z,15.55
2024-05-09T13:40:33.805Z,15.51
2024-05-09T13:42:58.544Z,15.49
2024-05-09T13:45:26.091Z,15.46
2024-05-09T13:47:54.264Z,15.38
2024-05-09T13:50:30.997Z,15.34
2024-05-09T13:52:51.581Z,15.33
2024-05-09T13:55:19.038Z,15.31
2024-05-09T13:57:46.755Z,15.31
2024-05-09T14:00:27.172Z,15.29
2024-05-09T14:02:44.883Z,15.27
2024-05-09T14:05:12.929Z,15.23
2024-05-09T14:07:41.126Z,15.18
2024-05-09T14:10:19.452Z,15.15
2024-05-09T14:12:38.211Z,15.13
2024-05-09T14:15:05.915Z,15.09
2024-05-09T14:17:33.717Z,15.08
2024-05-09T14:20:01.425Z,15.06
2024-05-09T14:22:29.086Z,15.04
2024-05-09T14:24:56.605Z,15.03
2024-05-09T14:27:24.282Z,15.04
2024-05-09T14:29:51.711Z,15.03
2024-05-09T14:32:19.093Z,15.02
2024-05-09T14:34:47.037Z,15.03
2024-05-09T14:37:14.772Z,15.02
2024-05-09T14:39:42.381Z,15.04
2024-05-09T14:42:09.942Z,15.02
2024-05-09T14:44:37.547Z,15.03
2024-05-09T14:47:05.285Z,15.03
2024-05-09T14:49:32.848Z,15.03
2024-05-09T14:52:00.414Z,15.06
2024-05-09T14:54:27.978Z,15.09
2024-05-09T14:56:55.985Z,15.12
2024-05-09T14:59:23.574Z,15.13
2024-05-09T15:01:51.245Z,15.15
2024-05-09T15:04:19.179Z,15.16
2024-05-09T15:06:48.069Z,15.15
2024-05-09T15:09:15.765Z,15.16
2024-05-09T15:11:43.461Z,15.16
2024-05-09T15:14:10.915Z,15.16
2024-05-09T15:16:38.866Z,15.18
2024-05-09T15:19:06.537Z,15.20
2024-05-09T15:21:34.152Z,15.22
2024-05-09T15:24:01.845Z,15.24
2024-05-09T15:26:29.435Z,15.24
2024-05-09T15:28:57.053Z,15.24
2024-05-09T15:31:24.618Z,15.24
2024-05-09T15:33:52.392Z,15.22
2024-05-09T15:36:20.309Z,15.19
2024-05-09T15:38:48.054Z,15.17
2024-05-09T15:41:15.668Z,15.20
2024-05-09T15:43:43.341Z,15.19
2024-05-09T15:46:11.230Z,15.17
2024-05-09T15:48:42.683Z,15.14
2024-05-09T15:51:08.995Z,15.14
2024-05-09T15:53:36.514Z,15.11
2024-05-09T15:56:04.843Z,15.06
2024-05-09T15:58:32.183Z,15.06
2024-05-09T16:00:59.754Z,15.04
2024-05-09T16:03:27.621Z,15.11
2024-05-09T16:05:56.854Z,15.20
2024-05-09T16:08:24.345Z,15.24
2024-05-09T16:10:51.868Z,15.27
2024-05-09T16:13:20.114Z,15.34
2024-05-09T16:15:47.999Z,15.46
2024-05-09T16:18:15.935Z,15.47
2024-05-09T16:20:45.433Z,15.46
2024-05-09T16:23:13.085Z,15.47
2024-05-09T16:25:45.465Z,15.45
2024-05-09T16:28:13.480Z,15.48
2024-05-09T16:30:41.789Z,15.55
2024-05-09T16:33:12.539Z,15.62
2024-05-09T16:35:40.556Z,15.65
2024-05-09T16:38:08.388Z,15.67
2024-05-09T16:40:39.868Z,15.68
2024-05-09T16:43:06.286Z,15.67
2024-05-09T16:45:34.441Z,15.67
2024-05-09T16:48:02.354Z,15.66
2024-05-09T16:50:33.542Z,15.65
2024-05-09T16:53:01.438Z,15.65
2024-05-09T16:55:29.289Z,15.64
2024-05-09T16:57:57.841Z,15.63
2024-05-09T17:00:35.792Z,15.60
2024-05-09T17:02:55.203Z,15.57
2024-05-09T17:05:23.128Z,15.53
2024-05-09T17:07:51.092Z,15.46
2024-05-09T17:10:26.692Z,15.42
2024-05-09T17:12:48.243Z,15.35
2024-05-09T17:15:16.837Z,15.31
2024-05-09T17:17:44.500Z,15.25
2024-05-09T17:20:22.906Z,15.19
2024-05-09T17:22:41.671Z,15.14
2024-05-09T17:25:09.361Z,15.08
2024-05-09T17:27:36.996Z,15.03
2024-05-09T17:30:07.963Z,14.96
2024-05-09T17:32:35.416Z,14.89
2024-05-09T17:35:03.597Z,14.83
2024-05-09T17:37:31.291Z,14.75
2024-05-09T17:39:59.236Z,14.67
2024-05-09T17:42:26.981Z,14.61
2024-05-09T17:44:54.560Z,14.54
2024-05-09T17:47:22.509Z,14.46
2024-05-09T17:49:50.222Z,14.38
2024-05-09T17:52:18.209Z,14.30
2024-05-09T17:54:45.976Z,14.22
2024-05-09T17:57:13.728Z,14.15
2024-05-09T17:59:41.198Z,14.05
2024-05-09T18:02:08.974Z,13.96
2024-05-09T18:04:36.914Z,13.88
2024-05-09T18:07:04.784Z,13.80
2024-05-09T18:09:32.655Z,13.72
2024-05-09T18:12:01.244Z,13.65
2024-05-09T18:14:28.854Z,13.55
2024-05-09T18:16:56.269Z,13.49
2024-05-09T18:19:23.837Z,13.42
2024-05-09T18:21:51.762Z,13.32
2024-05-09T18:24:21.172Z,13.25
2024-05-09T18:26:49.105Z,13.18
2024-05-09T18:29:21.718Z,13.13
2024-05-09T18:31:47.406Z,13.08
2024-05-09T18:34:14.947Z,13.05
2024-05-09T18:36:42.916Z,13.02
2024-05-09T18:39:10.428Z,12.96
2024-05-09T18:41:38.084Z,12.97
2024-05-09T18:44:05.821Z,12.97
2024-05-09T18:46:33.522Z,12.96
2024-05-09T18:49:00.995Z,12.96
2024-05-09T18:51:28.572Z,12.95
2024-05-09T18:53:56.274Z,12.95
2024-05-09T18:56:23.862Z,12.91
2024-05-09T18:58:51.536Z,12.87
2024-05-09T19:01:19.000Z,12.81
2024-05-09T19:03:47.775Z,12.79
2024-05-09T19:06:15.576Z,12.74
2024-05-09T19:08:43.129Z,12.70
2024-05-09T19:11:10.680Z,12.64
2024-05-09T19:13:38.406Z,12.58
2024-05-09T19:16:06.622Z,12.51
2024-05-09T19:18:34.324Z,12.45
2024-05-09T19:21:02.160Z,12.40
2024-05-09T19:23:32.508Z,12.34
2024-05-09T19:25:59.151Z,12.29
2024-05-09T19:28:26.686Z,12.25
2024-05-09T19:30:54.259Z,12.20
2024-05-09T19:33:21.812Z,12.15
2024-05-09T19:35:50.204Z,12.11
2024-05-09T19:38:17.748Z,12.10
2024-05-09T19:40:45.264Z,12.10
2024-05-09T19:43:12.859Z,12.07
2024-05-09T19:45:40.417Z,12.03
2024-05-09T19:48:08.274Z,11.98
2024-05-09T19:50:41.989Z,11.92
2024-05-09T19:53:05.572Z,11.89
2024-05-09T19:55:33.222Z,11.86
2024-05-09T19:58:04.759Z,11.84
2024-05-09T20:00:36.275Z,11.82
2024-05-09T20:03:03.367Z,11.78
2024-05-09T20:05:31.456Z,11.76
2024-05-09T20:07:59.024Z,11.72
2024-05-09T20:10:31.686Z,11.69
2024-05-09T20:12:55.903Z,11.65
2024-05-09T20:15:23.430Z,11.63
2024-05-09T20:17:51.180Z,11.59
2024-05-09T20:20:28.292Z,11.53
2024-05-09T20:22:48.221Z,11.48
2024-05-09T20:25:16.028Z,11.39
2024-05-09T20:27:43.921Z,11.31
2024-05-09T20:30:14.424Z,11.24
2024-05-09T20:32:41.096Z,11.18
2024-05-09T20:35:08.821Z,11.14
2024-05-09T20:37:36.331Z,11.09
2024-05-09T20:40:07.912Z,11.04
2024-05-09T20:42:34.358Z,10.99
2024-05-09T20:45:02.107Z,10.93
2024-05-09T20:47:29.644Z,10.88
2024-05-09T20:49:57.508Z,10.85
2024-05-09T20:52:24.988Z,10.87
2024-05-09T20:54:52.616Z,10.90
2024-05-09T20:57:20.205Z,10.95
2024-05-09T20:59:47.916Z,11.00
2024-05-09T21:02:15.841Z,11.05
2024-05-09T21:04:43.904Z,11.09
2024-05-09T21:07:11.973Z,11.14
2024-05-09T21:09:39.537Z,11.16
2024-05-09T21:12:07.327Z,11.16
2024-05-09T21:14:34.880Z,11.15
2024-05-09T21:17:02.349Z,11.17
2024-05-09T21:19:29.949Z,11.17
2024-05-09T21:21:57.517Z,11.16
2024-05-09T21:24:25.011Z,11.11
2024-05-09T21:26:52.500Z,11.10
2024-05-09T21:29:20.090Z,11.07
2024-05-09T21:31:47.761Z,11.01
2024-05-09T21:34:15.550Z,10.93
2024-05-09T21:36:43.363Z,10.83
2024-05-09T21:39:11.139Z,10.70
2024-05-09T21:41:38.490Z,10.63
2024-05-09T21:44:06.086Z,10.58
2024-05-09T21:46:33.770Z,10.53
2024-05-09T21:49:03.052Z,10.48
2024-05-09T21:51:31.139Z,10.43
2024-05-09T21:53:58.916Z,10.37
2024-05-09T21:56:26.571Z,10.33
2024-05-09T21:58:54.218Z,10.25
2024-05-09T22:01:22.387Z,10.22
2024-05-09T22:03:50.050Z,10.20
2024-05-09T22:06:17.923Z,10.21
2024-05-09T22:08:45.460Z,10.18
2024-05-09T22:11:13.085Z,10.12
2024-05-09T22:13:40.409Z,10.05
2024-05-09T22:16:08.187Z,10.00
2024-05-09T22:18:35.938Z,9.93
2024-05-09T22:21:03.942Z,9.87
2024-05-09T22:23:31.733Z,9.78
2024-05-09T22:25:59.522Z,9.73
2024-05-09T22:28:27.151Z,9.69
2024-05-09T22:30:54.795Z,9.65
2024-05-09T22:33:22.595Z,9.60
2024-05-09T22:35:50.780Z,9.56
2024-05-09T22:38:18.199Z,9.52
2024-05-09T22:40:48.848Z,9.48
2024-05-09T22:43:22.562Z,9.47
2024-05-09T22:45:50.114Z,9.43
2024-05-09T22:48:18.283Z,9.40
2024-05-09T22:50:45.998Z,9.36
2024-05-09T22:53:13.411Z,9.31
2024-05-09T22:55:41.153Z,9.26
2024-05-09T22:58:08.922Z,9.22
2024-05-09T23:00:36.662Z,9.19
2024-05-09T23:03:05.413Z,9.17
2024-05-09T23:05:33.252Z,9.14
2024-05-09T23:08:01.506Z,9.15
2024-05-09T23:10:35.433Z,9.18
2024-05-09T23:12:58.634Z,9.19
2024-05-09T23:15:26.266Z,9.19
2024-05-09T23:17:54.635Z,9.20
2024-05-09T23:20:33.129Z,9.20
2024-05-09T23:22:51.879Z,9.21
2024-05-09T23:25:19.568Z,9.22
2024-05-09T23:27:47.495Z,9.27
2024-05-09T23:30:25.384Z,9.32
2024-05-09T23:32:44.841Z,9.36
2024-05-09T23:35:12.385Z,9.40
2024-05-09T23:37:39.955Z,9.48
2024-05-09T23:40:09.780Z,9.52
2024-05-09T23:42:41.348Z,9.59
2024-05-09T23:45:09.099Z,9.65
2024-05-09T23:47:36.805Z,9.68
2024-05-09T23:50:08.962Z,9.72
2024-05-09T23:52:35.756Z,9.72
2024-05-09T23:55:03.766Z,9.70
2024-05-09T23:57:31.345Z,9.68
